createdAt,value
2022-08-30T00:01:14.252Z,7.40
2022-08-30T00:03:42.828Z,8.77
2022-08-30T00:06:09.815Z,9.60
2022-08-30T00:08:37.139Z,8.90
2022-08-30T00:11:05.622Z,8.97
2022-08-30T00:13:32.153Z,8.07
2022-08-30T00:15:58.794Z,8.50
2022-08-30T00:18:25.379Z,9.03
2022-08-30T00:20:52.805Z,7.83
2022-08-30T00:23:19.621Z,8.87
2022-08-30T00:25:46.112Z,8.43
2022-08-30T00:28:13.255Z,8.47
2022-08-30T00:30:40.079Z,6.37
2022-08-30T00:33:06.693Z,5.90
2022-08-30T00:35:33.693Z,6.27
2022-08-30T00:38:00.292Z,5.50
2022-08-30T00:40:28.030Z,5.93
2022-08-30T00:42:59.321Z,4.87
2022-08-30T00:45:31.576Z,6.00
2022-08-30T00:47:58.320Z,4.97
2022-08-30T00:50:29.495Z,5.80
2022-08-30T00:52:58.324Z,5.50
2022-08-30T00:55:24.916Z,6.10
2022-08-30T00:57:53.721Z,5.83
2022-08-30T01:00:22.539Z,5.87
2022-08-30T01:02:50.193Z,4.67
2022-08-30T01:05:20.303Z,5.30
2022-08-30T01:07:46.846Z,4.83
2022-08-30T01:10:14.079Z,5.70
2022-08-30T01:12:41.618Z,5.20
2022-08-30T01:15:09.834Z,5.60
2022-08-30T01:17:36.519Z,4.90
2022-08-30T01:20:08.149Z,4.63
2022-08-30T01:22:39.917Z,5.10
2022-08-30T01:25:08.372Z,5.37
2022-08-30T01:27:37.694Z,5.50
2022-08-30T01:30:05.122Z,5.13
2022-08-30T01:32:31.789Z,6.03
2022-08-30T01:34:58.428Z,5.60
2022-08-30T01:37:30.098Z,5.37
2022-08-30T01:39:58.751Z,5.60
2022-08-30T01:42:25.294Z,5.70
2022-08-30T01:44:54.648Z,6.23
2022-08-30T01:47:22.386Z,4.80
2022-08-30T01:49:50.542Z,5.63
2022-08-30T01:52:19.019Z,5.03
2022-08-30T01:54:47.474Z,6.37
2022-08-30T01:57:16.049Z,5.90
2022-08-30T01:59:48.277Z,5.70
2022-08-30T02:02:16.140Z,7.00
2022-08-30T02:04:42.874Z,6.60
2022-08-30T02:07:10.515Z,6.37
2022-08-30T02:09:37.754Z,6.50
2022-08-30T02:12:06.248Z,5.23
2022-08-30T02:14:33.043Z,5.33
2022-08-30T02:16:59.755Z,6.33
2022-08-30T02:19:26.358Z,5.10
2022-08-30T02:21:52.877Z,5.03
2022-08-30T02:24:19.628Z,5.67
2022-08-30T02:26:46.962Z,5.00
2022-08-30T02:29:13.762Z,5.33
2022-08-30T02:31:40.607Z,5.40
2022-08-30T02:34:07.844Z,5.13
2022-08-30T02:36:34.413Z,5.80
2022-08-30T02:39:00.929Z,5.17
2022-08-30T02:41:27.554Z,5.10
2022-08-30T02:43:58.404Z,5.10
2022-08-30T02:46:25.458Z,6.17
2022-08-30T02:48:51.998Z,7.60
2022-08-30T02:51:18.709Z,9.13
2022-08-30T02:53:46.502Z,7.80
2022-08-30T02:56:13.958Z,7.17
2022-08-30T02:58:44.851Z,7.87
2022-08-30T03:01:13.570Z,7.30
2022-08-30T03:03:41.473Z,7.10
2022-08-30T03:06:10.466Z,5.87
2022-08-30T03:08:37.465Z,7.37
2022-08-30T03:11:04.236Z,6.80
2022-08-30T03:13:30.799Z,6.17
2022-08-30T03:15:57.376Z,6.20
2022-08-30T03:18:23.988Z,5.23
2022-08-30T03:20:54.126Z,6.00
2022-08-30T03:23:22.916Z,4.10
2022-08-30T03:25:50.240Z,4.83
2022-08-30T03:28:17.459Z,4.67
2022-08-30T03:30:44.130Z,5.27
2022-08-30T03:33:11.452Z,4.00
2022-08-30T03:35:38.210Z,4.30
2022-08-30T03:38:06.630Z,4.97
2022-08-30T03:40:34.067Z,4.70
2022-08-30T03:43:00.981Z,4.10
2022-08-30T03:45:27.777Z,5.07
2022-08-30T03:47:54.295Z,5.73
2022-08-30T03:50:21.066Z,4.70
2022-08-30T03:52:47.899Z,5.00
2022-08-30T03:55:14.809Z,4.80
2022-08-30T03:57:43.530Z,4.87
2022-08-30T04:00:11.168Z,4.10
2022-08-30T04:02:40.890Z,4.13
2022-08-30T04:05:08.263Z,4.17
2022-08-30T04:07:34.963Z,5.07
2022-08-30T04:10:01.862Z,4.27
2022-08-30T04:12:30.328Z,4.77
2022-08-30T04:14:56.893Z,5.10
2022-08-30T04:17:23.689Z,4.87
2022-08-30T04:19:51.607Z,4.40
2022-08-30T04:22:18.236Z,4.93
2022-08-30T04:24:45.098Z,4.60
2022-08-30T04:27:11.623Z,4.80
2022-08-30T04:29:38.343Z,5.13
2022-08-30T04:32:05.035Z,4.23
2022-08-30T04:34:31.681Z,4.93
2022-08-30T04:36:58.205Z,3.90
2022-08-30T04:39:25.244Z,4.77
2022-08-30T04:41:51.808Z,4.37
2022-08-30T04:44:19.649Z,5.50
2022-08-30T04:46:46.515Z,5.37
2022-08-30T04:49:13.106Z,5.47
2022-08-30T04:51:39.662Z,4.10
2022-08-30T04:54:06.474Z,4.87
2022-08-30T04:56:33.560Z,4.77
2022-08-30T04:59:00.245Z,4.13
2022-08-30T05:01:28.421Z,4.47
2022-08-30T05:03:55.855Z,6.10
2022-08-30T05:06:24.158Z,4.80
2022-08-30T05:08:51.862Z,4.87
2022-08-30T05:11:18.974Z,5.70
2022-08-30T05:13:46.279Z,4.20
2022-08-30T05:16:17.771Z,4.30
2022-08-30T05:18:45.294Z,4.87
2022-08-30T05:21:13.593Z,4.93
2022-08-30T05:23:40.568Z,4.80
2022-08-30T05:26:08.596Z,4.90
2022-08-30T05:28:36.065Z,4.37
2022-08-30T05:31:02.915Z,4.97
2022-08-30T05:33:30.240Z,3.77
2022-08-30T05:35:56.738Z,5.20
2022-08-30T05:38:23.255Z,5.17
2022-08-30T05:40:50.257Z,6.60
2022-08-30T05:43:16.855Z,5.60
2022-08-30T05:45:43.414Z,6.10
2022-08-30T05:48:09.912Z,5.47
2022-08-30T05:50:40.060Z,4.93
2022-08-30T05:53:06.728Z,6.70
2022-08-30T05:55:33.298Z,5.50
2022-08-30T05:58:00.808Z,5.27
2022-08-30T06:00:30.218Z,5.87
2022-08-30T06:02:56.772Z,5.57
2022-08-30T06:05:23.304Z,4.83
2022-08-30T06:07:49.875Z,5.00
2022-08-30T06:10:16.865Z,6.00
2022-08-30T06:12:43.986Z,5.90
2022-08-30T06:15:10.893Z,5.73
2022-08-30T06:17:39.591Z,5.83
2022-08-30T06:20:06.478Z,6.37
2022-08-30T06:22:32.974Z,5.37
2022-08-30T06:24:59.485Z,6.90
2022-08-30T06:27:25.997Z,6.30
2022-08-30T06:29:52.703Z,5.50
2022-08-30T06:32:19.220Z,5.90
2022-08-30T06:34:45.729Z,5.97
2022-08-30T06:37:12.258Z,5.67
2022-08-30T06:39:57.361Z,5.30
2022-08-30T06:42:24.205Z,5.93
2022-08-30T06:44:51.003Z,5.90
2022-08-30T06:47:18.198Z,6.77
2022-08-30T06:49:44.704Z,6.90
2022-08-30T06:52:11.689Z,6.47
2022-08-30T06:54:38.740Z,6.80
2022-08-30T06:57:05.238Z,5.43
2022-08-30T06:59:32.466Z,4.87
2022-08-30T07:01:59.382Z,5.70
2022-08-30T07:04:25.925Z,4.70
2022-08-30T07:06:52.409Z,5.07
2022-08-30T07:09:19.493Z,4.60
2022-08-30T07:11:49.440Z,4.90
2022-08-30T07:14:15.992Z,5.30
2022-08-30T07:16:43.247Z,4.30
2022-08-30T07:19:09.758Z,4.30
2022-08-30T07:21:48.938Z,5.07
2022-08-30T07:24:16.286Z,4.97
2022-08-30T07:26:46.685Z,5.90
2022-08-30T07:29:13.230Z,4.50
2022-08-30T07:31:40.145Z,5.70
2022-08-30T07:34:07.431Z,4.40
2022-08-30T07:36:34.810Z,6.00
2022-08-30T07:39:01.400Z,5.10
2022-08-30T07:41:29.306Z,4.93
2022-08-30T07:43:56.127Z,4.27
2022-08-30T07:46:23.215Z,5.77
2022-08-30T07:48:50.049Z,5.73
2022-08-30T07:51:18.798Z,5.00
2022-08-30T07:53:45.632Z,5.10
2022-08-30T07:56:12.583Z,5.40
2022-08-30T07:58:39.677Z,4.40
2022-08-30T08:01:07.896Z,4.60
2022-08-30T08:03:35.098Z,5.00
2022-08-30T08:06:03.347Z,5.30
2022-08-30T08:08:30.087Z,4.70
2022-08-30T08:10:56.636Z,5.10
2022-08-30T08:13:23.683Z,5.93
2022-08-30T08:15:55.242Z,6.07
2022-08-30T08:18:21.909Z,5.30
2022-08-30T08:20:48.537Z,5.10
2022-08-30T08:23:16.089Z,5.37
2022-08-30T08:25:43.001Z,5.40
2022-08-30T08:28:09.682Z,5.47
2022-08-30T08:30:37.299Z,5.30
2022-08-30T08:33:04.671Z,6.40
2022-08-30T08:35:31.751Z,5.87
2022-08-30T08:37:58.370Z,6.33
2022-08-30T08:40:25.940Z,7.47
2022-08-30T08:42:52.515Z,6.20
2022-08-30T08:45:42.476Z,6.60
2022-08-30T08:48:18.736Z,6.43
2022-08-30T08:51:07.048Z,7.17
2022-08-30T08:53:45.801Z,5.93
2022-08-30T08:56:16.421Z,6.50
2022-08-30T08:58:47.812Z,6.07
2022-08-30T09:01:16.720Z,6.50
2022-08-30T09:03:44.129Z,6.43
2022-08-30T09:06:20.394Z,6.17
2022-08-30T09:08:47.180Z,7.00
2022-08-30T09:11:18.327Z,6.70
2022-08-30T09:13:54.488Z,5.80
2022-08-30T09:16:39.777Z,6.23
2022-08-30T09:19:06.487Z,6.20
2022-08-30T09:21:34.291Z,6.07
2022-08-30T09:24:04.597Z,7.23
2022-08-30T09:26:33.849Z,6.60
2022-08-30T09:29:01.113Z,7.07
2022-08-30T09:31:32.167Z,6.83
2022-08-30T09:34:06.097Z,6.10
2022-08-30T09:36:34.654Z,5.90
2022-08-30T09:39:03.577Z,6.70
2022-08-30T09:41:36.317Z,6.40
2022-08-30T09:44:07.981Z,6.10
2022-08-30T09:46:34.608Z,6.83
2022-08-30T09:49:01.263Z,7.73
2022-08-30T09:51:47.986Z,6.80
2022-08-30T09:54:31.236Z,6.73
2022-08-30T09:57:17.204Z,7.93
2022-08-30T09:59:50.336Z,6.37
2022-08-30T10:02:35.518Z,6.13
2022-08-30T10:05:17.248Z,5.80
2022-08-30T10:07:55.566Z,6.30
2022-08-30T10:10:31.162Z,6.07
2022-08-30T10:13:22.680Z,5.50
2022-08-30T10:15:58.183Z,7.00
2022-08-30T10:18:25.194Z,6.90
2022-08-30T10:20:54.799Z,6.10
2022-08-30T10:23:25.174Z,6.10
2022-08-30T10:26:13.432Z,6.90
2022-08-30T10:28:50.279Z,5.70
2022-08-30T10:31:29.085Z,6.30
2022-08-30T10:33:58.717Z,6.00
2022-08-30T10:36:30.877Z,5.73
2022-08-30T10:38:58.867Z,5.33
2022-08-30T10:41:41.047Z,4.90
2022-08-30T10:44:13.592Z,5.67
2022-08-30T10:46:52.316Z,4.83
2022-08-30T10:49:21.318Z,4.83
2022-08-30T10:51:52.866Z,4.93
2022-08-30T10:54:23.588Z,5.20
2022-08-30T10:56:53.963Z,4.73
2022-08-30T10:59:21.024Z,5.10
2022-08-30T11:01:53.856Z,4.20
2022-08-30T11:04:45.789Z,4.20
2022-08-30T11:07:21.512Z,4.17
2022-08-30T11:10:20.542Z,5.37
2022-08-30T11:12:59.459Z,4.73
2022-08-30T11:15:31.401Z,4.70
2022-08-30T11:17:58.028Z,4.97
2022-08-30T11:20:30.725Z,4.50
2022-08-30T11:23:06.374Z,4.97
2022-08-30T11:25:53.533Z,4.30
2022-08-30T11:28:36.972Z,5.00
2022-08-30T11:31:23.616Z,4.90
2022-08-30T11:34:00.904Z,4.50
2022-08-30T11:36:37.894Z,4.67
2022-08-30T11:39:12.625Z,5.60
2022-08-30T11:41:47.925Z,5.10
2022-08-30T11:44:20.815Z,4.20
2022-08-30T11:46:49.583Z,3.90
2022-08-30T11:49:19.094Z,4.40
2022-08-30T11:52:23.856Z,4.23
2022-08-30T11:55:00.003Z,3.50
2022-08-30T11:57:45.525Z,4.23
2022-08-30T12:00:28.439Z,4.47
2022-08-30T12:02:58.450Z,4.00
2022-08-30T12:05:38.653Z,4.17
2022-08-30T12:08:08.226Z,4.10
2022-08-30T12:10:43.285Z,4.20
2022-08-30T12:13:10.775Z,4.30
2022-08-30T12:15:57.323Z,4.77
2022-08-30T12:18:28.870Z,3.53
2022-08-30T12:21:05.163Z,5.57
2022-08-30T12:23:52.707Z,4.30
2022-08-30T12:26:26.067Z,3.70
2022-08-30T12:29:05.144Z,4.40
2022-08-30T12:31:31.692Z,4.93
2022-08-30T12:34:03.128Z,4.10
2022-08-30T12:36:48.169Z,4.37
2022-08-30T12:39:19.970Z,4.30
2022-08-30T12:41:46.542Z,5.03
2022-08-30T12:44:15.677Z,4.07
2022-08-30T12:46:43.271Z,4.47
2022-08-30T12:49:10.135Z,4.40
2022-08-30T12:51:42.017Z,4.27
2022-08-30T12:54:17.718Z,4.60
2022-08-30T12:56:49.493Z,3.90
2022-08-30T12:59:36.924Z,4.27
2022-08-30T13:02:22.922Z,4.60
2022-08-30T13:04:50.896Z,4.53
2022-08-30T13:07:28.499Z,3.77
2022-08-30T13:10:06.586Z,3.57
2022-08-30T13:12:36.023Z,4.30
2022-08-30T13:15:19.929Z,4.60
2022-08-30T13:17:46.881Z,5.33
2022-08-30T13:20:16.479Z,4.27
2022-08-30T13:23:00.420Z,4.23
2022-08-30T13:25:27.280Z,3.80
2022-08-30T13:27:53.912Z,4.23
2022-08-30T13:30:20.467Z,3.73
2022-08-30T13:32:46.946Z,4.03
2022-08-30T13:35:13.474Z,3.87
2022-08-30T13:37:47.619Z,4.47
2022-08-30T13:40:18.033Z,3.87
2022-08-30T13:42:44.680Z,3.80
2022-08-30T13:48:01.191Z,5.17
2022-08-30T13:50:27.699Z,4.17
2022-08-30T13:52:54.217Z,4.30
2022-08-30T13:55:20.694Z,4.20
2022-08-30T13:57:55.459Z,4.10
2022-08-30T14:00:23.544Z,4.73
2022-08-30T14:02:54.597Z,4.10
2022-08-30T14:10:58.191Z,5.47
2022-08-30T14:13:25.472Z,5.07
2022-08-30T14:16:27.007Z,4.40
2022-08-30T14:18:40.698Z,5.20
2022-08-30T14:21:07.324Z,4.90
2022-08-30T14:23:33.963Z,4.00
2022-08-30T14:26:01.756Z,4.37
2022-08-30T14:28:30.265Z,5.20
2022-08-30T14:30:57.858Z,5.30
2022-08-30T14:33:25.158Z,3.93
2022-08-30T14:35:53.103Z,4.80
2022-08-30T14:38:20.292Z,4.57
2022-08-30T14:40:46.836Z,4.40
2022-08-30T14:43:14.130Z,5.00
2022-08-30T14:45:40.679Z,4.17
2022-08-30T14:48:11.580Z,4.57
2022-08-30T14:50:42.794Z,4.27
2022-08-30T14:53:09.913Z,3.80
2022-08-30T14:55:37.207Z,5.17
2022-08-30T14:58:06.813Z,4.43
2022-08-30T15:00:33.398Z,5.10
2022-08-30T15:03:02.311Z,4.23
2022-08-30T15:05:28.880Z,4.70
2022-08-30T15:07:55.377Z,4.60
2022-08-30T15:10:22.701Z,4.23
2022-08-30T15:12:51.034Z,4.23
2022-08-30T15:15:21.059Z,4.80
2022-08-30T15:17:52.730Z,4.20
2022-08-30T15:20:19.296Z,4.40
2022-08-30T15:22:46.427Z,4.30
2022-08-30T15:25:13.157Z,4.90
2022-08-30T15:27:39.724Z,4.70
2022-08-30T15:30:06.763Z,3.63
2022-08-30T15:32:33.302Z,4.37
2022-08-30T15:35:00.231Z,4.17
2022-08-30T15:37:27.162Z,4.60
2022-08-30T15:39:53.766Z,3.77
2022-08-30T15:42:20.517Z,4.70
2022-08-30T15:44:50.907Z,3.90
2022-08-30T15:47:19.810Z,4.00
2022-08-30T15:49:46.336Z,4.70
2022-08-30T15:52:13.269Z,4.00
2022-08-30T15:54:39.989Z,4.00
2022-08-30T15:57:06.518Z,3.43
2022-08-30T15:59:33.130Z,3.60
2022-08-30T16:01:59.658Z,3.80
2022-08-30T16:04:26.231Z,4.27
2022-08-30T16:06:52.850Z,4.40
2022-08-30T16:09:19.553Z,3.53
2022-08-30T16:11:46.202Z,3.67
2022-08-30T16:14:13.312Z,3.90
2022-08-30T16:16:41.795Z,3.20
2022-08-30T16:19:09.122Z,4.10
2022-08-30T16:21:39.762Z,4.37
2022-08-30T16:24:07.423Z,3.70
2022-08-30T16:26:37.672Z,4.03
2022-08-30T16:29:05.975Z,4.10
2022-08-30T16:31:34.627Z,3.93
2022-08-30T16:34:02.414Z,3.50
2022-08-30T16:36:30.360Z,3.93
2022-08-30T16:38:58.279Z,4.20
2022-08-30T16:41:24.976Z,4.37
2022-08-30T16:43:53.589Z,4.10
2022-08-30T16:46:26.954Z,4.30
2022-08-30T16:48:54.815Z,3.80
2022-08-30T16:51:22.703Z,5.30
2022-08-30T16:53:49.491Z,3.40
2022-08-30T16:56:20.444Z,3.87
2022-08-30T16:58:47.975Z,4.10
2022-08-30T17:01:14.979Z,4.40
2022-08-30T17:03:44.039Z,3.47
2022-08-30T17:06:10.585Z,3.50
2022-08-30T17:08:39.564Z,3.70
2022-08-30T17:11:06.233Z,3.80
2022-08-30T17:13:35.554Z,4.50
2022-08-30T17:16:03.815Z,3.60
2022-08-30T17:18:30.402Z,4.50
2022-08-30T17:20:57.162Z,3.70
2022-08-30T17:23:23.661Z,4.10
2022-08-30T17:25:50.283Z,3.67
2022-08-30T17:28:16.931Z,3.87
2022-08-30T17:30:43.705Z,3.50
2022-08-30T17:33:11.791Z,4.30
2022-08-30T17:35:39.567Z,4.57
2022-08-30T17:38:06.099Z,4.67
2022-08-30T17:40:33.086Z,3.73
2022-08-30T17:42:59.639Z,3.90
2022-08-30T17:45:26.179Z,4.70
2022-08-30T17:47:52.780Z,4.53
2022-08-30T17:50:19.610Z,5.17
2022-08-30T17:52:46.585Z,4.37
2022-08-30T17:55:14.531Z,4.33
2022-08-30T17:57:43.928Z,4.60
2022-08-30T18:00:12.413Z,4.10
2022-08-30T18:02:42.744Z,4.37
2022-08-30T18:05:09.945Z,4.50
2022-08-30T18:07:36.987Z,4.30
2022-08-30T18:10:04.412Z,4.30
2022-08-30T18:12:30.898Z,4.77
2022-08-30T18:15:00.688Z,4.67
2022-08-30T18:17:28.352Z,5.50
2022-08-30T18:19:54.970Z,5.17
2022-08-30T18:22:24.378Z,4.63
2022-08-30T18:24:51.257Z,5.10
2022-08-30T18:27:17.947Z,4.57
2022-08-30T18:29:44.518Z,5.20
2022-08-30T18:32:11.494Z,5.10
2022-08-30T18:34:40.286Z,4.77
2022-08-30T18:37:11.377Z,4.90
2022-08-30T18:39:38.205Z,5.63
2022-08-30T18:42:06.270Z,5.50
2022-08-30T18:44:33.778Z,5.47
2022-08-30T18:47:01.396Z,5.33
2022-08-30T18:49:28.822Z,4.83
2022-08-30T18:51:55.337Z,5.70
2022-08-30T18:54:22.086Z,5.00
2022-08-30T18:56:49.616Z,4.93
2022-08-30T18:59:16.280Z,5.70
2022-08-30T19:01:42.799Z,6.23
2022-08-30T19:04:11.330Z,5.73
2022-08-30T19:06:49.875Z,5.20
2022-08-30T19:09:16.529Z,5.60
2022-08-30T19:11:44.134Z,5.80
2022-08-30T19:14:10.734Z,4.43
2022-08-30T19:16:40.886Z,5.13
2022-08-30T19:19:08.057Z,6.07
2022-08-30T19:21:35.757Z,5.00
2022-08-30T19:24:02.529Z,6.07
2022-08-30T19:26:29.140Z,5.13
2022-08-30T19:28:55.636Z,5.60
2022-08-30T19:31:22.138Z,5.40
2022-08-30T19:33:48.695Z,5.23
2022-08-30T19:36:15.502Z,5.97
2022-08-30T19:38:44.385Z,5.27
2022-08-30T19:41:11.431Z,4.77
2022-08-30T19:43:38.144Z,6.23
2022-08-30T19:46:04.751Z,5.20
2022-08-30T19:48:32.310Z,5.73
2022-08-30T19:51:00.467Z,5.57
2022-08-30T19:53:27.089Z,5.53
2022-08-30T19:55:53.953Z,6.00
2022-08-30T19:58:20.462Z,5.57
2022-08-30T20:00:54.288Z,6.30
2022-08-30T20:03:27.828Z,5.70
2022-08-30T20:05:54.379Z,5.77
2022-08-30T20:08:21.797Z,4.93
2022-08-30T20:10:48.394Z,5.40
2022-08-30T20:13:15.099Z,5.70
2022-08-30T20:15:41.798Z,6.33
2022-08-30T20:18:14.224Z,6.23
2022-08-30T20:20:41.902Z,6.97
2022-08-30T20:23:16.141Z,5.70
2022-08-30T20:25:50.753Z,6.13
2022-08-30T20:28:18.058Z,6.43
2022-08-30T20:30:44.848Z,6.47
2022-08-30T20:33:11.431Z,6.13
2022-08-30T20:35:38.994Z,5.90
2022-08-30T20:38:06.887Z,5.93
2022-08-30T20:40:36.059Z,8.70
2022-08-30T20:43:03.358Z,6.37
2022-08-30T20:45:32.267Z,6.50
2022-08-30T20:47:58.761Z,6.50
2022-08-30T20:50:25.423Z,6.50
2022-08-30T20:52:52.043Z,4.87
2022-08-30T20:55:18.682Z,6.07
2022-08-30T20:57:45.266Z,6.13
2022-08-30T21:00:13.752Z,6.57
2022-08-30T21:02:47.003Z,6.53
2022-08-30T21:05:15.814Z,6.70
2022-08-30T21:07:43.209Z,6.10
2022-08-30T21:10:09.992Z,6.40
2022-08-30T21:12:36.598Z,7.33
2022-08-30T21:15:26.820Z,6.70
2022-08-30T21:17:50.814Z,6.60
2022-08-30T21:20:17.339Z,6.70
2022-08-30T21:22:43.921Z,6.00
2022-08-30T21:25:10.557Z,6.73
2022-08-30T21:27:37.145Z,6.47
2022-08-30T21:30:04.286Z,6.53
2022-08-30T21:32:30.964Z,5.97
2022-08-30T21:35:16.237Z,6.20
2022-08-30T21:37:42.795Z,6.60
2022-08-30T21:40:14.948Z,7.47
2022-08-30T21:42:42.016Z,7.07
2022-08-30T21:45:08.776Z,6.07
2022-08-30T21:47:35.398Z,5.63
2022-08-30T21:50:02.104Z,6.80
2022-08-30T21:52:28.670Z,6.20
2022-08-30T21:54:55.192Z,6.30
2022-08-30T21:57:21.710Z,6.33
2022-08-30T21:59:48.245Z,7.20
2022-08-30T22:02:14.828Z,6.80
2022-08-30T22:04:41.735Z,6.83
2022-08-30T22:07:08.393Z,6.10
2022-08-30T22:09:35.196Z,5.20
2022-08-30T22:12:01.930Z,6.90
2022-08-30T22:14:30.451Z,6.27
2022-08-30T22:16:57.334Z,6.77
2022-08-30T22:19:24.111Z,6.33
2022-08-30T22:21:50.893Z,5.70
2022-08-30T22:24:17.492Z,7.40
2022-08-30T22:26:44.709Z,6.07
2022-08-30T22:29:11.234Z,6.30
2022-08-30T22:31:41.621Z,7.03
2022-08-30T22:34:10.041Z,6.03
2022-08-30T22:36:37.608Z,6.70
2022-08-30T22:39:05.396Z,8.07
2022-08-30T22:41:33.989Z,6.50
2022-08-30T22:44:01.045Z,6.80
2022-08-30T22:46:34.004Z,6.53
2022-08-30T22:49:02.293Z,6.90
2022-08-30T22:51:28.879Z,7.70
2022-08-30T22:53:55.845Z,7.10
2022-08-30T22:56:23.595Z,8.03
2022-08-30T22:58:50.164Z,6.70
2022-08-30T23:01:36.941Z,7.57
2022-08-30T23:04:06.919Z,7.10
2022-08-30T23:06:33.914Z,6.87
2022-08-30T23:09:00.429Z,7.20
2022-08-30T23:11:27.049Z,6.77
2022-08-30T23:13:53.715Z,6.73
2022-08-30T23:16:20.780Z,7.77
2022-08-30T23:18:47.773Z,6.80
2022-08-30T23:21:16.286Z,6.93
2022-08-30T23:24:01.479Z,6.63
2022-08-30T23:26:47.051Z,7.43
2022-08-30T23:29:32.618Z,6.60
2022-08-30T23:32:18.025Z,7.30
2022-08-30T23:35:03.742Z,7.77
2022-08-30T23:37:52.118Z,7.60
2022-08-30T23:40:39.235Z,6.70
2022-08-30T23:43:25.105Z,7.50
2022-08-30T23:46:10.315Z,7.83
2022-08-30T23:48:55.534Z,6.63
2022-08-30T23:51:40.650Z,7.67
2022-08-30T23:54:25.988Z,6.20
2022-08-30T23:57:11.291Z,7.03
2022-08-30T23:59:56.589Z,6.70
